createdAt,value
2018-01-13T00:02:03.816Z,3.70
2018-01-13T00:04:32.190Z,3.90
2018-01-13T00:07:00.511Z,3.90
2018-01-13T00:09:28.854Z,3.90
2018-01-13T00:11:57.177Z,3.90
2018-01-13T00:14:25.496Z,3.90
2018-01-13T00:16:53.815Z,3.90
2018-01-13T00:19:22.125Z,3.90
2018-01-13T00:21:50.450Z,3.80
2018-01-13T00:24:18.772Z,3.80
2018-01-13T00:26:47.105Z,3.80
2018-01-13T00:29:15.426Z,3.80
2018-01-13T00:31:43.761Z,3.90
2018-01-13T00:34:12.842Z,3.80
2018-01-13T00:36:41.162Z,3.80
2018-01-13T00:39:09.492Z,3.90
2018-01-13T00:41:38.007Z,4.00
2018-01-13T00:44:06.348Z,4.00
2018-01-13T00:46:34.679Z,3.90
2018-01-13T00:49:02.996Z,3.80
2018-01-13T00:51:31.314Z,3.70
2018-01-13T00:53:59.650Z,3.60
2018-01-13T00:56:27.955Z,3.50
2018-01-13T00:58:56.285Z,3.30
2018-01-13T01:01:24.589Z,3.30
2018-01-13T01:03:52.919Z,3.40
2018-01-13T01:06:21.982Z,3.50
2018-01-13T01:08:50.320Z,3.50
2018-01-13T01:11:18.640Z,3.60
2018-01-13T01:13:46.980Z,3.60
2018-01-13T01:16:15.302Z,3.50
2018-01-13T01:18:43.620Z,3.60
2018-01-13T01:21:11.949Z,3.80
2018-01-13T01:23:40.276Z,3.80
2018-01-13T01:26:08.603Z,3.70
2018-01-13T01:28:36.901Z,3.50
2018-01-13T01:31:05.222Z,3.60
2018-01-13T01:33:33.520Z,3.70
2018-01-13T01:36:02.620Z,3.60
2018-01-13T01:38:30.956Z,3.60
2018-01-13T01:40:59.288Z,3.60
2018-01-13T01:43:27.587Z,3.60
2018-01-13T01:45:55.924Z,3.70
2018-01-13T01:48:26.149Z,3.70
2018-01-13T01:50:54.658Z,3.50
2018-01-13T01:53:22.960Z,3.40
2018-01-13T01:55:52.044Z,3.40
2018-01-13T01:58:20.378Z,3.40
2018-01-13T02:00:48.702Z,3.50
2018-01-13T02:03:17.020Z,3.60
2018-01-13T02:05:45.330Z,3.50
2018-01-13T02:08:13.699Z,3.60
2018-01-13T02:10:42.021Z,3.60
2018-01-13T02:13:10.388Z,3.60
2018-01-13T02:15:38.680Z,3.60
2018-01-13T02:18:07.017Z,3.70
2018-01-13T02:20:35.314Z,3.80
2018-01-13T02:23:03.810Z,3.80
2018-01-13T02:25:32.930Z,3.90
2018-01-13T02:28:02.002Z,3.80
2018-01-13T02:30:30.335Z,3.80
2018-01-13T02:32:58.664Z,3.80
2018-01-13T02:35:27.001Z,3.80
2018-01-13T02:37:55.315Z,3.80
2018-01-13T02:40:23.652Z,3.80
2018-01-13T02:42:51.962Z,3.80
2018-01-13T02:45:20.311Z,3.70
2018-01-13T02:47:48.619Z,3.70
2018-01-13T02:50:17.712Z,3.60
2018-01-13T02:52:46.021Z,3.50
2018-01-13T02:55:15.112Z,3.50
2018-01-13T02:57:43.408Z,3.40
2018-01-13T03:00:12.481Z,3.40
2018-01-13T03:02:40.829Z,3.40
2018-01-13T03:05:09.129Z,3.50
2018-01-13T03:07:37.450Z,3.40
2018-01-13T03:10:05.783Z,3.40
2018-01-13T03:12:34.118Z,3.50
2018-01-13T03:15:02.448Z,3.40
2018-01-13T03:17:30.796Z,3.50
2018-01-13T03:19:59.114Z,3.50
2018-01-13T03:22:28.228Z,3.60
2018-01-13T03:24:57.287Z,3.50
2018-01-13T03:27:25.620Z,3.50
2018-01-13T03:29:53.933Z,3.60
2018-01-13T03:32:22.245Z,3.50
2018-01-13T03:34:50.576Z,3.50
2018-01-13T03:37:18.960Z,3.60
2018-01-13T03:39:47.301Z,3.70
2018-01-13T03:42:16.359Z,3.70
2018-01-13T03:44:44.683Z,3.60
2018-01-13T03:47:12.983Z,3.70
2018-01-13T03:49:41.307Z,3.80
2018-01-13T03:52:09.616Z,3.80
2018-01-13T03:54:37.963Z,3.70
2018-01-13T03:57:06.283Z,3.60
2018-01-13T03:59:34.655Z,3.50
2018-01-13T04:02:02.968Z,3.50
2018-01-13T04:04:31.294Z,3.50
2018-01-13T04:07:06.460Z,3.50
2018-01-13T04:09:34.769Z,3.50
2018-01-13T04:12:03.109Z,3.40
2018-01-13T04:14:31.427Z,3.50
2018-01-13T04:16:59.780Z,3.40
2018-01-13T04:19:28.100Z,3.40
2018-01-13T04:21:56.443Z,3.40
2018-01-13T04:24:24.759Z,3.40
2018-01-13T04:26:53.105Z,3.40
2018-01-13T04:29:21.417Z,3.40
2018-01-13T04:31:49.759Z,3.50
2018-01-13T04:34:18.068Z,3.60
2018-01-13T04:36:46.401Z,3.60
2018-01-13T04:39:14.709Z,3.60
2018-01-13T04:41:43.026Z,3.40
2018-01-13T04:44:12.127Z,3.40
2018-01-13T04:46:41.200Z,3.50
2018-01-13T04:49:09.530Z,3.50
2018-01-13T04:51:37.852Z,3.60
2018-01-13T04:54:06.188Z,3.60
2018-01-13T04:56:34.509Z,3.60
2018-01-13T04:59:02.858Z,3.50
2018-01-13T05:01:31.176Z,3.60
2018-01-13T05:03:59.528Z,3.60
2018-01-13T05:06:27.842Z,3.50
2018-01-13T05:08:56.944Z,3.50
2018-01-13T05:11:26.024Z,3.50
2018-01-13T05:13:54.380Z,3.50
2018-01-13T05:16:22.692Z,3.40
2018-01-13T05:18:51.769Z,3.40
2018-01-13T05:21:20.104Z,3.40
2018-01-13T05:23:48.692Z,3.30
2018-01-13T05:26:17.034Z,3.40
2018-01-13T05:28:45.348Z,3.40
2018-01-13T05:31:13.694Z,3.50
2018-01-13T05:33:42.775Z,3.50
2018-01-13T05:36:11.111Z,3.50
2018-01-13T05:38:39.445Z,3.50
2018-01-13T05:41:08.710Z,3.70
2018-01-13T05:43:37.060Z,3.60
2018-01-13T05:46:05.369Z,3.40
2018-01-13T05:48:33.699Z,3.30
2018-01-13T05:51:02.038Z,3.30
2018-01-13T05:53:30.391Z,3.30
2018-01-13T05:55:58.700Z,3.30
2018-01-13T05:58:27.330Z,3.20
2018-01-13T06:00:55.645Z,3.20
2018-01-13T06:03:23.987Z,3.20
2018-01-13T06:05:52.299Z,3.30
2018-01-13T06:08:20.652Z,3.30
2018-01-13T06:10:49.739Z,3.20
2018-01-13T06:13:18.062Z,3.20
2018-01-13T06:15:46.391Z,3.20
2018-01-13T06:18:14.712Z,3.20
2018-01-13T06:20:43.052Z,3.20
2018-01-13T06:23:11.373Z,3.20
2018-01-13T06:25:39.732Z,3.30
2018-01-13T06:28:08.078Z,3.20
2018-01-13T06:30:36.422Z,3.20
2018-01-13T06:33:04.745Z,3.10
2018-01-13T06:35:33.098Z,3.20
2018-01-13T06:38:02.188Z,3.20
2018-01-13T06:40:30.698Z,3.20
2018-01-13T06:42:59.005Z,3.20
2018-01-13T06:45:27.317Z,3.10
2018-01-13T06:47:55.665Z,3.10
2018-01-13T06:50:23.980Z,3.20
2018-01-13T06:52:52.312Z,3.20
2018-01-13T06:55:20.638Z,3.10
2018-01-13T06:57:48.976Z,3.20
2018-01-13T07:00:17.300Z,3.10
2018-01-13T07:02:45.656Z,3.20
2018-01-13T07:05:13.981Z,3.30
2018-01-13T07:07:42.327Z,3.20
2018-01-13T07:10:10.636Z,3.10
2018-01-13T07:12:38.999Z,3.20
2018-01-13T07:15:08.088Z,3.10
2018-01-13T07:17:36.406Z,3.10
2018-01-13T07:20:04.816Z,3.10
2018-01-13T07:22:33.138Z,3.10
2018-01-13T07:25:02.240Z,3.10
2018-01-13T07:27:30.562Z,3.00
2018-01-13T07:29:58.899Z,3.10
2018-01-13T07:32:27.240Z,3.10
2018-01-13T07:34:55.589Z,3.10
2018-01-13T07:37:23.896Z,3.20
2018-01-13T07:39:52.205Z,3.10
2018-01-13T07:42:21.330Z,3.10
2018-01-13T07:44:49.647Z,3.10
2018-01-13T07:47:17.983Z,3.20
2018-01-13T07:49:46.297Z,3.20
2018-01-13T07:52:14.664Z,3.10
2018-01-13T07:54:42.980Z,3.10
2018-01-13T07:57:12.100Z,3.10
2018-01-13T07:59:40.430Z,3.10
2018-01-13T08:02:08.769Z,3.10
2018-01-13T08:04:37.099Z,3.10
2018-01-13T08:07:05.448Z,3.20
2018-01-13T08:09:33.755Z,3.20
2018-01-13T08:12:02.101Z,3.20
2018-01-13T08:14:30.450Z,3.20
2018-01-13T08:16:58.779Z,3.20
2018-01-13T08:19:27.112Z,3.10
2018-01-13T08:21:55.420Z,3.20
2018-01-13T08:24:23.753Z,3.30
2018-01-13T08:26:52.891Z,3.30
2018-01-13T08:29:21.227Z,3.30
2018-01-13T08:31:50.309Z,3.40
2018-01-13T08:34:18.663Z,3.40
2018-01-13T08:36:47.003Z,3.50
2018-01-13T08:39:15.504Z,3.50
2018-01-13T08:41:43.834Z,3.40
2018-01-13T08:44:12.149Z,3.40
2018-01-13T08:46:40.498Z,3.50
2018-01-13T08:49:09.580Z,3.50
2018-01-13T08:51:37.920Z,3.50
2018-01-13T08:54:06.236Z,3.50
2018-01-13T08:56:34.580Z,3.60
2018-01-13T08:59:02.898Z,3.60
2018-01-13T09:01:32.132Z,3.50
2018-01-13T09:04:00.445Z,3.50
2018-01-13T09:06:28.775Z,3.60
2018-01-13T09:08:57.873Z,3.60
2018-01-13T09:11:26.993Z,3.60
2018-01-13T09:13:55.306Z,3.70
2018-01-13T09:16:23.649Z,3.60
2018-01-13T09:18:51.988Z,3.60
2018-01-13T09:21:20.316Z,3.60
2018-01-13T09:23:48.624Z,3.60
2018-01-13T09:26:17.154Z,3.60
2018-01-13T09:28:45.468Z,3.80
2018-01-13T09:31:13.783Z,3.70
2018-01-13T09:33:42.122Z,3.70
2018-01-13T09:36:10.432Z,3.70
2018-01-13T09:38:38.761Z,3.60
2018-01-13T09:41:07.078Z,3.60
2018-01-13T09:43:35.409Z,3.70
2018-01-13T09:46:03.716Z,3.70
2018-01-13T09:48:32.056Z,3.70
2018-01-13T09:51:00.369Z,3.70
2018-01-13T09:53:28.718Z,3.80
2018-01-13T09:55:57.028Z,3.80
2018-01-13T09:58:25.332Z,3.90
2018-01-13T10:00:53.681Z,4.00
2018-01-13T10:03:22.006Z,4.00
2018-01-13T10:05:50.332Z,3.90
2018-01-13T10:08:18.655Z,3.90
2018-01-13T10:10:46.999Z,4.00
2018-01-13T10:13:15.314Z,3.90
2018-01-13T10:15:44.429Z,4.00
2018-01-13T10:18:13.500Z,4.00
2018-01-13T10:20:41.866Z,4.00
2018-01-13T10:23:10.183Z,4.00
2018-01-13T10:25:39.257Z,3.90
2018-01-13T10:28:07.606Z,3.90
2018-01-13T10:30:35.927Z,4.00
2018-01-13T10:33:04.262Z,3.90
2018-01-13T10:35:34.217Z,4.00
2018-01-13T10:38:02.554Z,3.90
2018-01-13T10:40:31.634Z,4.10
2018-01-13T10:42:59.973Z,4.00
2018-01-13T10:45:28.288Z,4.10
2018-01-13T10:47:56.625Z,4.10
2018-01-13T10:50:24.952Z,4.10
2018-01-13T10:52:53.257Z,4.20
2018-01-13T10:55:21.604Z,4.20
2018-01-13T10:57:49.931Z,4.20
2018-01-13T11:00:18.281Z,4.20
2018-01-13T11:02:46.597Z,4.20
2018-01-13T11:05:14.944Z,4.20
2018-01-13T11:07:43.259Z,4.30
2018-01-13T11:10:11.598Z,4.30
2018-01-13T11:12:39.904Z,4.30
2018-01-13T11:15:08.417Z,4.40
2018-01-13T11:17:36.745Z,4.40
2018-01-13T11:20:05.088Z,4.40
2018-01-13T11:22:33.448Z,4.40
2018-01-13T11:25:02.540Z,4.40
2018-01-13T11:27:31.680Z,4.50
2018-01-13T11:30:00.053Z,4.50
2018-01-13T11:32:28.384Z,4.50
2018-01-13T11:34:56.706Z,4.40
2018-01-13T11:37:25.050Z,4.40
2018-01-13T11:39:54.133Z,4.50
2018-01-13T11:42:23.263Z,4.50
2018-01-13T11:44:51.595Z,4.50
2018-01-13T11:47:19.930Z,4.60
2018-01-13T11:49:48.256Z,4.60
2018-01-13T11:52:16.597Z,4.60
2018-01-13T11:54:44.913Z,4.60
2018-01-13T11:57:13.235Z,4.70
2018-01-13T11:59:41.568Z,4.70
2018-01-13T12:02:09.888Z,4.70
2018-01-13T12:04:38.246Z,4.70
2018-01-13T12:07:06.558Z,4.70
2018-01-13T12:09:34.897Z,4.60
2018-01-13T12:12:03.217Z,4.60
2018-01-13T12:14:31.562Z,4.60
2018-01-13T12:17:00.643Z,4.70
2018-01-13T12:19:28.973Z,4.70
2018-01-13T12:21:57.292Z,4.70
2018-01-13T12:24:25.632Z,4.70
2018-01-13T12:26:53.958Z,4.70
2018-01-13T12:29:22.302Z,4.80
2018-01-13T12:31:50.616Z,4.70
2018-01-13T12:34:19.131Z,4.70
2018-01-13T12:36:47.458Z,4.70
2018-01-13T12:39:15.771Z,4.70
2018-01-13T12:41:44.890Z,4.80
2018-01-13T12:44:13.213Z,4.80
2018-01-13T12:46:41.556Z,4.80
2018-01-13T12:49:09.873Z,4.80
2018-01-13T12:51:38.209Z,4.90
2018-01-13T12:54:06.527Z,4.90
2018-01-13T12:56:34.874Z,4.90
2018-01-13T12:59:03.208Z,4.90
2018-01-13T13:01:31.545Z,4.80
2018-01-13T13:03:59.861Z,4.80
2018-01-13T13:06:28.206Z,4.90
2018-01-13T13:08:56.514Z,4.90
2018-01-13T13:11:24.860Z,4.90
2018-01-13T13:13:53.194Z,4.80
2018-01-13T13:16:22.305Z,4.70
2018-01-13T13:18:50.617Z,4.70
2018-01-13T13:21:18.929Z,4.80
2018-01-13T13:23:47.274Z,4.80
2018-01-13T13:26:15.594Z,4.80
2018-01-13T13:28:43.931Z,4.90
2018-01-13T13:31:12.237Z,4.80
2018-01-13T13:33:40.573Z,4.80
2018-01-13T13:36:08.890Z,4.80
2018-01-13T13:38:37.228Z,4.80
2018-01-13T13:41:05.555Z,4.70
2018-01-13T13:43:33.880Z,4.70
2018-01-13T13:46:02.210Z,4.70
2018-01-13T13:48:30.552Z,4.80
2018-01-13T13:50:58.871Z,4.70
2018-01-13T13:53:27.219Z,4.60
2018-01-13T13:55:55.551Z,4.70
2018-01-13T13:58:24.654Z,4.60
2018-01-13T14:00:52.967Z,4.60
2018-01-13T14:03:21.305Z,4.60
2018-01-13T14:05:49.638Z,4.50
2018-01-13T14:08:17.979Z,4.50
2018-01-13T14:10:46.297Z,4.50
2018-01-13T14:13:14.607Z,4.50
2018-01-13T14:15:43.700Z,4.40
2018-01-13T14:18:12.782Z,4.50
2018-01-13T14:20:41.115Z,4.50
2018-01-13T14:23:09.429Z,4.40
2018-01-13T14:25:37.797Z,4.40
2018-01-13T14:28:06.102Z,4.40
2018-01-13T14:30:34.441Z,4.40
2018-01-13T14:33:02.754Z,4.40
2018-01-13T14:35:31.092Z,4.40
2018-01-13T14:37:59.406Z,4.30
2018-01-13T14:40:27.740Z,4.30
2018-01-13T14:42:56.051Z,4.40
2018-01-13T14:45:24.566Z,4.40
2018-01-13T14:47:53.638Z,4.30
2018-01-13T14:50:21.969Z,4.30
2018-01-13T14:52:50.317Z,4.30
2018-01-13T14:55:18.628Z,4.30
2018-01-13T14:57:46.965Z,4.30
2018-01-13T15:00:15.282Z,4.20
2018-01-13T15:02:43.622Z,4.30
2018-01-13T15:05:11.946Z,4.20
2018-01-13T15:07:40.291Z,4.20
2018-01-13T15:10:09.375Z,4.20
2018-01-13T15:12:37.716Z,4.20
2018-01-13T15:15:06.037Z,4.20
2018-01-13T15:17:34.374Z,4.20
2018-01-13T15:20:02.692Z,4.10
2018-01-13T15:22:31.028Z,4.10
2018-01-13T15:24:59.344Z,4.10
2018-01-13T15:27:27.680Z,4.10
2018-01-13T15:29:55.999Z,4.00
2018-01-13T15:32:24.331Z,4.10
2018-01-13T15:34:52.648Z,4.10
2018-01-13T15:37:20.970Z,4.00
2018-01-13T15:39:49.307Z,4.00
2018-01-13T15:42:17.633Z,4.10
2018-01-13T15:44:45.984Z,4.00
2018-01-13T15:47:14.296Z,4.00
2018-01-13T15:49:42.625Z,4.00
2018-01-13T15:52:14.417Z,4.00
2018-01-13T15:54:43.519Z,4.00
2018-01-13T15:57:11.834Z,4.00
2018-01-13T15:59:40.173Z,4.00
2018-01-13T16:02:08.478Z,4.00
2018-01-13T16:04:36.850Z,3.90
2018-01-13T16:07:05.177Z,3.90
2018-01-13T16:09:33.559Z,3.90
2018-01-13T16:12:01.873Z,3.90
2018-01-13T16:14:30.185Z,3.90
2018-01-13T16:16:58.527Z,3.90
2018-01-13T16:19:26.880Z,3.80
2018-01-13T16:21:55.213Z,3.80
2018-01-13T16:24:23.532Z,3.80
2018-01-13T16:26:51.872Z,3.80
2018-01-13T16:29:20.226Z,3.90
2018-01-13T16:31:48.601Z,3.80
2018-01-13T16:34:17.677Z,3.70
2018-01-13T16:36:46.776Z,3.80
2018-01-13T16:39:15.869Z,3.80
2018-01-13T16:41:44.957Z,3.80
2018-01-13T16:44:13.273Z,3.70
2018-01-13T16:46:41.625Z,3.80
2018-01-13T16:49:10.696Z,3.70
2018-01-13T16:51:39.022Z,3.70
2018-01-13T16:54:07.350Z,3.70
2018-01-13T16:56:35.655Z,3.70
2018-01-13T16:59:04.763Z,3.60
2018-01-13T17:01:33.838Z,3.70
2018-01-13T17:04:02.165Z,3.60
2018-01-13T17:06:30.481Z,3.60
2018-01-13T17:08:59.104Z,3.60
2018-01-13T17:11:27.459Z,3.60
2018-01-13T17:13:55.789Z,3.70
2018-01-13T17:16:24.118Z,3.60
2018-01-13T17:18:52.454Z,3.60
2018-01-13T17:21:20.762Z,3.60
2018-01-13T17:23:49.117Z,3.60
2018-01-13T17:26:17.450Z,3.60
2018-01-13T17:28:46.563Z,3.50
2018-01-13T17:31:14.881Z,3.50
2018-01-13T17:33:43.211Z,3.60
2018-01-13T17:36:11.531Z,3.50
2018-01-13T17:38:39.864Z,3.50
2018-01-13T17:41:08.244Z,3.50
2018-01-13T17:43:37.325Z,3.50
2018-01-13T17:46:06.472Z,3.50
2018-01-13T17:48:34.789Z,3.50
2018-01-13T17:51:03.171Z,3.50
2018-01-13T17:53:31.522Z,3.50
2018-01-13T17:55:59.898Z,3.50
2018-01-13T17:58:28.655Z,3.50
2018-01-13T18:00:57.039Z,3.50
2018-01-13T18:03:25.355Z,3.50
2018-01-13T18:05:53.696Z,3.50
2018-01-13T18:08:22.013Z,3.40
2018-01-13T18:10:50.378Z,3.50
2018-01-13T18:13:18.770Z,3.50
2018-01-13T18:15:47.086Z,3.40
2018-01-13T18:18:16.189Z,3.40
2018-01-13T18:20:44.494Z,3.40
2018-01-13T18:23:12.838Z,3.40
2018-01-13T18:25:41.959Z,3.40
2018-01-13T18:28:10.289Z,3.40
2018-01-13T18:30:38.656Z,3.40
2018-01-13T18:33:07.034Z,3.30
2018-01-13T18:35:35.388Z,3.30
2018-01-13T18:38:03.718Z,3.30
2018-01-13T18:40:32.028Z,3.30
2018-01-13T18:43:00.369Z,3.30
2018-01-13T18:45:28.691Z,3.30
2018-01-13T18:47:56.998Z,3.30
2018-01-13T18:50:25.391Z,3.40
2018-01-13T18:52:53.714Z,3.30
2018-01-13T18:55:22.859Z,3.30
2018-01-13T18:57:51.186Z,3.30
2018-01-13T19:00:19.515Z,3.30
2018-01-13T19:02:47.853Z,3.30
2018-01-13T19:05:16.224Z,3.30
2018-01-13T19:07:45.343Z,3.30
2018-01-13T19:10:14.474Z,3.30
2018-01-13T19:12:42.838Z,3.30
2018-01-13T19:15:11.140Z,3.30
2018-01-13T19:17:39.517Z,3.30
2018-01-13T19:20:07.838Z,3.20
2018-01-13T19:22:36.224Z,3.20
2018-01-13T19:25:04.584Z,3.20
2018-01-13T19:27:33.732Z,3.20
2018-01-13T19:30:02.057Z,3.10
2018-01-13T19:32:30.434Z,3.10
2018-01-13T19:34:58.776Z,3.10
2018-01-13T19:37:27.116Z,3.10
2018-01-13T19:39:55.471Z,3.10
2018-01-13T19:42:23.853Z,3.10
2018-01-13T19:44:52.168Z,3.00
2018-01-13T19:47:20.551Z,3.00
2018-01-13T19:49:48.928Z,3.00
2018-01-13T19:52:17.323Z,3.00
2018-01-13T19:54:45.629Z,3.00
2018-01-13T19:57:13.983Z,3.00
2018-01-13T19:59:42.351Z,3.00
2018-01-13T20:02:10.741Z,3.00
2018-01-13T20:04:39.118Z,2.90
2018-01-13T20:07:07.417Z,2.90
2018-01-13T20:09:35.800Z,2.90
2018-01-13T20:12:04.163Z,2.90
2018-01-13T20:14:32.540Z,2.90
2018-01-13T20:17:00.908Z,2.90
2018-01-13T20:19:29.287Z,2.90
2018-01-13T20:21:57.684Z,2.90
2018-01-13T20:24:26.086Z,2.80
2018-01-13T20:26:54.448Z,2.90
2018-01-13T20:29:22.840Z,2.90
2018-01-13T20:31:51.208Z,2.80
2018-01-13T20:34:19.606Z,2.80
2018-01-13T20:36:47.960Z,2.80
2018-01-13T20:39:16.321Z,2.80
2018-01-13T20:41:44.706Z,2.90
2018-01-13T20:44:13.073Z,2.80
2018-01-13T20:46:41.471Z,2.80
2018-01-13T20:49:09.853Z,2.80
2018-01-13T20:51:38.254Z,2.80
2018-01-13T20:54:06.623Z,2.80
2018-01-13T20:56:35.017Z,2.80
2018-01-13T20:59:03.393Z,2.80
2018-01-13T21:01:31.791Z,2.80
2018-01-13T21:04:00.132Z,2.80
2018-01-13T21:06:28.516Z,2.70
2018-01-13T21:08:56.892Z,2.70
2018-01-13T21:11:25.272Z,2.70
2018-01-13T21:13:53.627Z,2.70
2018-01-13T21:16:22.013Z,2.70
2018-01-13T21:18:50.386Z,2.60
2018-01-13T21:21:18.760Z,2.60
2018-01-13T21:23:47.134Z,2.60
2018-01-13T21:26:15.490Z,2.70
2018-01-13T21:28:44.587Z,2.60
2018-01-13T21:31:12.951Z,2.60
2018-01-13T21:33:41.301Z,2.60
2018-01-13T21:36:09.677Z,2.60
2018-01-13T21:38:38.019Z,2.60
2018-01-13T21:41:07.143Z,2.50
2018-01-13T21:43:35.524Z,2.50
2018-01-13T21:46:03.883Z,2.40
2018-01-13T21:48:32.213Z,2.50
2018-01-13T21:51:00.587Z,2.40
2018-01-13T21:53:28.963Z,2.50
2018-01-13T21:55:57.340Z,2.40
2018-01-13T21:58:25.884Z,2.40
2018-01-13T22:00:54.206Z,2.30
2018-01-13T22:03:22.569Z,2.40
2018-01-13T22:05:50.945Z,2.30
2018-01-13T22:08:19.299Z,2.30
2018-01-13T22:10:47.685Z,2.20
2018-01-13T22:13:16.038Z,2.20
2018-01-13T22:15:44.416Z,2.30
2018-01-13T22:18:12.897Z,2.20
2018-01-13T22:20:42.045Z,2.20
2018-01-13T22:23:10.417Z,2.10
2018-01-13T22:25:38.781Z,2.20
2018-01-13T22:28:07.152Z,2.10
2018-01-13T22:30:35.491Z,2.20
2018-01-13T22:33:03.809Z,2.10
2018-01-13T22:35:32.204Z,2.10
2018-01-13T22:38:00.562Z,2.10
2018-01-13T22:40:29.705Z,2.00
2018-01-13T22:42:58.078Z,2.00
2018-01-13T22:45:26.472Z,2.00
2018-01-13T22:47:54.799Z,2.00
2018-01-13T22:50:23.112Z,1.90
2018-01-13T22:52:51.466Z,1.90
2018-01-13T22:55:19.800Z,1.90
2018-01-13T22:57:48.182Z,1.90
2018-01-13T23:00:16.560Z,1.90
2018-01-13T23:02:44.905Z,1.90
2018-01-13T23:05:13.216Z,1.70
2018-01-13T23:07:41.603Z,1.70
2018-01-13T23:10:09.968Z,1.70
2018-01-13T23:12:38.357Z,1.70
2018-01-13T23:15:06.720Z,1.70
2018-01-13T23:17:35.058Z,1.70
2018-01-13T23:20:03.421Z,1.70
2018-01-13T23:22:31.820Z,1.70
2018-01-13T23:25:00.171Z,1.60
2018-01-13T23:27:29.488Z,1.60
2018-01-13T23:29:57.814Z,1.60
2018-01-13T23:32:26.180Z,1.70
2018-01-13T23:34:54.527Z,1.70
2018-01-13T23:37:22.893Z,1.60
2018-01-13T23:39:52.034Z,1.60
2018-01-13T23:42:20.396Z,1.60
2018-01-13T23:44:48.734Z,1.50
2018-01-13T23:47:17.052Z,1.50
2018-01-13T23:49:45.387Z,1.50
2018-01-13T23:52:13.705Z,1.40
2018-01-13T23:54:42.054Z,1.50
2018-01-13T23:57:10.424Z,1.40
2018-01-13T23:59:38.770Z,1.40
